createdAt,value
2023-04-15T00:00:31.366Z,74.80
2023-04-15T00:03:17.729Z,75.40
2023-04-15T00:06:03.901Z,75.90
2023-04-15T00:08:50.697Z,76.30
2023-04-15T00:11:36.395Z,74.90
2023-04-15T00:14:23.860Z,73.00
2023-04-15T00:17:11.775Z,74.20
2023-04-15T00:20:00.121Z,74.80
2023-04-15T00:22:48.855Z,73.20
2023-04-15T00:25:34.445Z,73.80
2023-04-15T00:28:19.834Z,74.20
2023-04-15T00:31:05.808Z,73.50
2023-04-15T00:33:51.665Z,74.00
2023-04-15T00:36:37.683Z,72.70
2023-04-15T00:39:25.600Z,73.90
2023-04-15T00:42:11.218Z,73.80
2023-04-15T00:44:57.273Z,73.20
2023-04-15T00:47:44.247Z,72.40
2023-04-15T00:50:29.884Z,72.50
2023-04-15T00:53:15.034Z,73.40
2023-04-15T00:56:00.577Z,72.10
2023-04-15T00:58:46.196Z,71.70
2023-04-15T01:01:32.799Z,71.20
2023-04-15T01:04:18.659Z,71.40
2023-04-15T01:07:08.558Z,70.50
2023-04-15T01:09:54.119Z,71.50
2023-04-15T01:12:40.060Z,70.30
2023-04-15T01:15:25.841Z,70.10
2023-04-15T01:18:11.481Z,69.60
2023-04-15T01:20:57.406Z,70.40
2023-04-15T01:23:50.921Z,69.70
2023-04-15T01:26:41.027Z,69.30
2023-04-15T01:29:29.552Z,69.30
2023-04-15T01:32:15.631Z,69.60
2023-04-15T01:35:01.360Z,69.00
2023-04-15T01:37:47.380Z,68.60
2023-04-15T01:40:33.716Z,68.20
2023-04-15T01:43:22.183Z,67.80
2023-04-15T01:46:08.267Z,68.00
2023-04-15T01:48:53.632Z,68.50
2023-04-15T01:51:39.846Z,68.70
2023-04-15T01:54:25.649Z,67.80
2023-04-15T01:57:13.317Z,67.30
2023-04-15T02:00:01.068Z,67.10
2023-04-15T02:02:47.131Z,67.20
2023-04-15T02:05:33.839Z,66.80
2023-04-15T02:08:19.340Z,67.30
2023-04-15T02:11:05.044Z,67.40
2023-04-15T02:13:53.088Z,66.90
2023-04-15T02:16:38.528Z,67.00
2023-04-15T02:19:24.259Z,67.40
2023-04-15T02:22:11.399Z,66.50
2023-04-15T02:24:56.949Z,66.90
2023-04-15T02:27:44.768Z,66.50
2023-04-15T02:30:31.136Z,66.00
2023-04-15T02:33:16.516Z,65.80
2023-04-15T02:36:01.901Z,66.80
2023-04-15T02:38:49.378Z,66.80
2023-04-15T02:41:35.139Z,66.90
2023-04-15T02:44:20.573Z,67.20
2023-04-15T02:47:07.116Z,67.20
2023-04-15T02:49:52.726Z,67.00
2023-04-15T02:52:42.824Z,66.60
2023-04-15T02:55:29.484Z,66.60
2023-04-15T02:58:14.783Z,66.90
2023-04-15T03:01:02.615Z,66.40
2023-04-15T03:03:50.452Z,67.10
2023-04-15T03:06:36.488Z,65.20
2023-04-15T03:09:21.749Z,65.50
2023-04-15T03:12:09.997Z,64.80
2023-04-15T03:14:56.038Z,63.70
2023-04-15T03:17:41.729Z,64.80
2023-04-15T03:20:29.780Z,63.80
2023-04-15T03:23:15.527Z,63.80
2023-04-15T03:26:06.720Z,63.60
2023-04-15T03:28:52.021Z,63.10
2023-04-15T03:31:37.427Z,62.80
2023-04-15T03:34:22.877Z,62.50
2023-04-15T03:37:10.926Z,61.90
2023-04-15T03:39:56.124Z,62.10
2023-04-15T03:42:41.962Z,62.00
2023-04-15T03:45:27.374Z,61.00
2023-04-15T03:48:17.191Z,61.90
2023-04-15T03:51:04.057Z,61.00
2023-04-15T03:53:49.590Z,61.20
2023-04-15T03:56:34.978Z,60.80
2023-04-15T03:59:20.419Z,61.00
2023-04-15T04:02:05.877Z,60.90
2023-04-15T04:04:53.803Z,60.60
2023-04-15T04:07:39.583Z,59.40
2023-04-15T04:10:24.888Z,59.80
2023-04-15T04:13:10.376Z,60.10
2023-04-15T04:15:58.192Z,59.10
2023-04-15T04:18:43.956Z,59.70
2023-04-15T04:21:34.088Z,59.70
2023-04-15T04:24:19.725Z,59.60
2023-04-15T04:27:07.303Z,59.30
2023-04-15T04:29:52.659Z,59.40
2023-04-15T04:32:38.131Z,59.20
2023-04-15T04:35:23.457Z,58.50
2023-04-15T04:38:08.770Z,58.60
2023-04-15T04:40:56.490Z,58.60
2023-04-15T04:43:41.796Z,58.10
2023-04-15T04:46:27.388Z,57.90
2023-04-15T04:49:12.521Z,57.30
2023-04-15T04:51:58.246Z,57.60
2023-04-15T04:54:43.525Z,57.60
2023-04-15T04:57:32.576Z,57.30
2023-04-15T05:00:18.124Z,57.10
2023-04-15T05:03:04.121Z,57.30
2023-04-15T05:05:49.561Z,56.20
2023-04-15T05:08:34.957Z,56.10
2023-04-15T05:11:20.975Z,55.50
2023-04-15T05:14:06.943Z,55.50
2023-04-15T05:16:52.812Z,54.70
2023-04-15T05:19:38.359Z,55.00
2023-04-15T05:22:26.163Z,54.50
2023-04-15T05:25:11.987Z,53.50
2023-04-15T05:28:00.464Z,53.80
2023-04-15T05:30:46.183Z,53.40
2023-04-15T05:33:33.038Z,52.70
2023-04-15T05:36:21.098Z,52.40
2023-04-15T05:39:07.148Z,52.30
2023-04-15T05:41:53.297Z,50.40
2023-04-15T05:44:38.743Z,50.00
2023-04-15T05:47:24.059Z,50.00
2023-04-15T05:50:10.120Z,49.20
2023-04-15T05:52:56.075Z,49.20
2023-04-15T05:55:41.737Z,48.50
2023-04-15T05:58:27.268Z,48.60
2023-04-15T06:01:12.801Z,48.10
2023-04-15T06:03:58.221Z,48.20
2023-04-15T06:06:43.718Z,47.10
2023-04-15T06:09:29.119Z,46.80
2023-04-15T06:12:14.412Z,45.40
2023-04-15T06:15:00.424Z,45.00
2023-04-15T06:17:46.311Z,44.70
2023-04-15T06:20:32.077Z,44.10
2023-04-15T06:23:17.911Z,43.40
2023-04-15T06:26:03.767Z,42.40
2023-04-15T06:28:49.322Z,42.30
2023-04-15T06:31:34.664Z,42.20
2023-04-15T06:34:20.287Z,41.20
2023-04-15T06:37:06.476Z,40.80
2023-04-15T06:39:52.329Z,40.40
2023-04-15T06:42:38.369Z,38.10
2023-04-15T06:45:24.155Z,38.40
2023-04-15T06:48:09.913Z,38.40
2023-04-15T06:50:58.787Z,37.50
2023-04-15T06:53:44.200Z,36.90
2023-04-15T06:56:30.031Z,37.30
2023-04-15T06:59:18.700Z,36.30
2023-04-15T07:02:04.298Z,35.50
2023-04-15T07:04:49.536Z,34.90
2023-04-15T07:07:36.049Z,34.40
2023-04-15T07:10:25.655Z,34.10
2023-04-15T07:13:11.340Z,34.10
2023-04-15T07:15:56.781Z,33.50
2023-04-15T07:18:42.316Z,33.50
2023-04-15T07:21:27.814Z,32.60
2023-04-15T07:24:16.846Z,32.80
2023-04-15T07:27:04.614Z,32.70
2023-04-15T07:29:51.995Z,31.80
2023-04-15T07:32:37.752Z,31.90
2023-04-15T07:35:23.484Z,31.30
2023-04-15T07:38:08.730Z,31.40
2023-04-15T07:40:54.784Z,32.40
2023-04-15T07:43:43.649Z,32.50
2023-04-15T07:46:31.875Z,31.80
2023-04-15T07:49:19.321Z,32.30
2023-04-15T07:52:07.113Z,32.30
2023-04-15T07:54:52.461Z,32.50
2023-04-15T07:57:40.053Z,32.90
2023-04-15T08:00:28.133Z,32.40
2023-04-15T08:03:16.494Z,32.90
2023-04-15T08:06:02.466Z,32.80
2023-04-15T08:08:48.317Z,32.50
2023-04-15T08:11:36.492Z,32.30
2023-04-15T08:14:22.230Z,31.60
2023-04-15T08:17:08.270Z,31.40
2023-04-15T08:19:54.190Z,31.20
2023-04-15T08:22:42.614Z,31.50
2023-04-15T08:25:28.538Z,32.00
2023-04-15T08:28:14.029Z,32.70
2023-04-15T08:31:01.841Z,33.00
2023-04-15T08:33:52.096Z,34.00
2023-04-15T08:36:37.791Z,33.10
2023-04-15T08:39:25.110Z,33.70
2023-04-15T08:42:18.381Z,33.00
2023-04-15T08:45:05.720Z,32.30
2023-04-15T08:47:56.449Z,33.00
2023-04-15T08:50:42.771Z,32.50
2023-04-15T08:53:30.459Z,32.20
2023-04-15T08:56:16.910Z,32.40
2023-04-15T08:59:03.380Z,32.30
2023-04-15T09:01:56.018Z,32.20
2023-04-15T09:04:41.445Z,32.40
2023-04-15T09:07:27.144Z,32.50
2023-04-15T09:10:13.299Z,32.70
2023-04-15T09:13:02.021Z,32.30
2023-04-15T09:15:50.263Z,32.40
2023-04-15T09:18:37.268Z,32.40
2023-04-15T09:21:25.290Z,32.40
2023-04-15T09:24:10.958Z,31.80
2023-04-15T09:26:58.788Z,32.30
2023-04-15T09:29:44.457Z,32.40
2023-04-15T09:32:52.025Z,31.40
2023-04-15T09:35:40.671Z,31.60
2023-04-15T09:38:26.212Z,31.30
2023-04-15T09:41:20.850Z,32.40
2023-04-15T09:44:06.657Z,32.60
2023-04-15T09:46:52.469Z,33.20
2023-04-15T09:49:38.228Z,33.00
2023-04-15T09:52:23.392Z,33.90
2023-04-15T09:55:08.785Z,34.40
2023-04-15T09:57:54.096Z,34.20
2023-04-15T10:00:39.580Z,35.10
2023-04-15T10:03:35.644Z,34.40
2023-04-15T10:06:23.879Z,34.60
2023-04-15T10:09:09.552Z,34.90
2023-04-15T10:11:56.082Z,34.90
2023-04-15T10:14:43.020Z,35.90
2023-04-15T10:17:31.624Z,36.00
2023-04-15T10:20:19.471Z,36.30
2023-04-15T10:23:06.890Z,37.20
2023-04-15T10:25:58.891Z,36.70
2023-04-15T10:28:45.195Z,36.50
2023-04-15T10:31:31.813Z,36.00
2023-04-15T10:34:18.616Z,36.40
2023-04-15T10:37:04.787Z,36.80
2023-04-15T10:39:50.759Z,36.10
2023-04-15T10:42:36.550Z,36.50
2023-04-15T10:45:32.443Z,36.00
2023-04-15T10:48:18.842Z,36.30
2023-04-15T10:51:05.137Z,34.50
2023-04-15T10:53:51.080Z,35.10
2023-04-15T10:56:36.476Z,33.60
2023-04-15T10:59:24.748Z,33.80
2023-04-15T11:02:14.470Z,35.90
2023-04-15T11:05:02.740Z,35.20
2023-04-15T11:07:50.708Z,35.90
2023-04-15T11:10:38.303Z,35.30
2023-04-15T11:13:28.268Z,36.00
2023-04-15T11:16:13.983Z,36.30
2023-04-15T11:18:59.709Z,37.60
2023-04-15T11:21:45.621Z,37.60
2023-04-15T11:24:31.058Z,37.80
2023-04-15T11:27:23.705Z,37.70
2023-04-15T11:30:21.801Z,38.30
2023-04-15T11:33:09.927Z,37.80
2023-04-15T11:35:55.749Z,37.70
2023-04-15T11:38:46.648Z,38.10
2023-04-15T11:41:32.471Z,37.90
2023-04-15T11:44:18.676Z,37.80
2023-04-15T11:47:25.323Z,37.80
2023-04-15T11:50:22.676Z,37.80
2023-04-15T11:53:13.473Z,37.90
2023-04-15T11:55:59.213Z,37.70
2023-04-15T11:58:46.415Z,38.40
2023-04-15T12:01:39.381Z,39.10
2023-04-15T12:04:25.894Z,39.20
2023-04-15T12:07:12.698Z,39.00
2023-04-15T12:09:58.736Z,38.50
2023-04-15T12:12:48.862Z,39.40
2023-04-15T12:15:39.308Z,40.60
2023-04-15T12:18:27.571Z,42.70
2023-04-15T12:21:13.871Z,41.40
2023-04-15T12:24:03.543Z,40.80
2023-04-15T12:26:57.749Z,39.00
2023-04-15T12:29:43.957Z,38.40
2023-04-15T12:32:29.923Z,37.00
2023-04-15T12:35:15.700Z,36.00
2023-04-15T12:38:03.276Z,34.60
2023-04-15T12:40:51.216Z,35.50
2023-04-15T12:43:37.023Z,34.50
2023-04-15T12:46:22.943Z,34.40
2023-04-15T12:49:09.391Z,35.20
2023-04-15T12:51:57.058Z,35.40
2023-04-15T12:54:44.658Z,34.90
2023-04-15T12:57:29.865Z,36.00
2023-04-15T13:00:15.680Z,35.50
2023-04-15T13:03:00.978Z,36.90
2023-04-15T13:05:46.409Z,36.60
2023-04-15T13:08:32.136Z,37.40
2023-04-15T13:11:23.332Z,37.20
2023-04-15T13:14:11.405Z,37.50
2023-04-15T13:16:57.008Z,38.00
2023-04-15T13:19:42.653Z,37.90
2023-04-15T13:22:28.228Z,38.10
2023-04-15T13:25:13.768Z,39.00
2023-04-15T13:27:59.343Z,38.90
2023-04-15T13:30:48.851Z,39.10
2023-04-15T13:33:34.165Z,38.20
2023-04-15T13:36:21.812Z,37.50
2023-04-15T13:39:07.485Z,36.20
2023-04-15T13:41:57.613Z,36.20
2023-04-15T13:44:43.076Z,37.10
2023-04-15T13:47:28.474Z,38.70
2023-04-15T13:50:16.103Z,38.70
2023-04-15T13:53:01.928Z,39.50
2023-04-15T13:55:47.157Z,40.10
2023-04-15T13:58:32.954Z,39.80
2023-04-15T14:01:21.214Z,40.00
2023-04-15T14:04:07.269Z,40.30
2023-04-15T14:06:52.777Z,39.80
2023-04-15T14:09:42.994Z,40.10
2023-04-15T14:12:28.572Z,41.10
2023-04-15T14:15:14.001Z,40.70
2023-04-15T14:18:04.521Z,40.50
2023-04-15T14:20:49.877Z,40.20
2023-04-15T14:23:34.952Z,40.30
2023-04-15T14:26:20.522Z,40.30
2023-04-15T14:29:06.310Z,40.80
2023-04-15T14:32:07.646Z,41.30
2023-04-15T14:34:59.431Z,42.00
2023-04-15T14:37:47.611Z,43.50
2023-04-15T14:40:33.795Z,42.80
2023-04-15T14:43:19.733Z,43.00
2023-04-15T14:46:05.383Z,42.80
2023-04-15T14:48:50.828Z,43.80
2023-04-15T14:51:40.701Z,44.40
2023-04-15T14:54:29.901Z,44.00
2023-04-15T14:57:15.883Z,43.60
2023-04-15T15:00:01.408Z,44.40
2023-04-15T15:02:49.954Z,44.90
2023-04-15T15:05:38.836Z,45.20
2023-04-15T15:08:24.489Z,45.30
2023-04-15T15:11:10.136Z,46.00
2023-04-15T15:13:56.953Z,45.70
2023-04-15T15:16:45.503Z,45.80
2023-04-15T15:19:31.939Z,45.80
2023-04-15T15:22:20.196Z,46.50
2023-04-15T15:25:06.923Z,46.20
2023-04-15T15:27:55.058Z,46.60
2023-04-15T15:30:41.036Z,46.80
2023-04-15T15:33:27.203Z,46.80
2023-04-15T15:36:16.555Z,47.20
2023-04-15T15:39:02.118Z,45.80
2023-04-15T15:41:47.736Z,45.90
2023-04-15T15:44:34.620Z,45.70
2023-04-15T15:47:21.470Z,46.00
2023-04-15T15:50:08.291Z,46.40
2023-04-15T15:52:53.616Z,46.30
2023-04-15T15:55:41.455Z,46.90
2023-04-15T15:58:29.373Z,47.60
2023-04-15T16:01:14.777Z,47.80
2023-04-15T16:04:01.533Z,48.30
2023-04-15T16:06:47.936Z,48.90
2023-04-15T16:09:33.529Z,48.80
2023-04-15T16:12:19.072Z,47.90
2023-04-15T16:15:05.456Z,48.00
2023-04-15T16:17:51.109Z,47.90
2023-04-15T16:20:39.462Z,47.80
2023-04-15T16:23:25.059Z,47.80
2023-04-15T16:26:11.016Z,47.90
2023-04-15T16:28:57.025Z,47.70
2023-04-15T16:31:44.677Z,47.90
2023-04-15T16:34:29.879Z,47.80
2023-04-15T16:37:15.935Z,47.60
2023-04-15T16:40:02.637Z,47.70
2023-04-15T16:42:48.217Z,47.80
2023-04-15T16:45:36.397Z,47.70
2023-04-15T16:48:22.222Z,47.30
2023-04-15T16:51:08.084Z,47.40
2023-04-15T16:53:53.979Z,47.70
2023-04-15T16:56:41.798Z,47.70
2023-04-15T16:59:27.955Z,47.70
2023-04-15T17:02:16.148Z,47.40
2023-04-15T17:05:01.847Z,47.60
2023-04-15T17:07:47.314Z,47.70
2023-04-15T17:10:34.963Z,47.60
2023-04-15T17:13:20.585Z,47.70
2023-04-15T17:16:06.477Z,47.90
2023-04-15T17:18:52.004Z,47.60
2023-04-15T17:21:37.410Z,47.50
2023-04-15T17:24:26.050Z,47.80
2023-04-15T17:27:11.403Z,47.90
2023-04-15T17:29:57.087Z,47.80
2023-04-15T17:32:42.751Z,48.70
2023-04-15T17:35:31.186Z,48.60
2023-04-15T17:38:16.669Z,49.20
2023-04-15T17:41:04.872Z,49.30
2023-04-15T17:43:53.008Z,50.00
2023-04-15T17:46:38.382Z,50.30
2023-04-15T17:49:23.942Z,50.40
2023-04-15T17:52:09.374Z,50.50
2023-04-15T17:54:55.871Z,50.70
2023-04-15T17:57:42.023Z,50.90
2023-04-15T18:00:27.392Z,50.80
2023-04-15T18:03:15.887Z,51.00
2023-04-15T18:06:06.454Z,51.30
2023-04-15T18:08:51.952Z,51.90
2023-04-15T18:11:39.078Z,52.20
2023-04-15T18:14:34.233Z,52.30
2023-04-15T18:17:25.694Z,52.40
2023-04-15T18:20:11.677Z,52.30
2023-04-15T18:22:57.951Z,52.40
2023-04-15T18:25:43.741Z,52.40
2023-04-15T18:28:33.301Z,52.60
2023-04-15T18:31:19.220Z,53.50
2023-04-15T18:34:06.643Z,54.00
2023-04-15T18:36:55.461Z,54.60
2023-04-15T18:39:41.102Z,55.00
2023-04-15T18:42:26.624Z,55.20
2023-04-15T18:45:14.947Z,55.70
2023-04-15T18:48:00.286Z,56.40
2023-04-15T18:50:45.862Z,56.50
2023-04-15T18:53:34.220Z,57.20
2023-04-15T18:56:19.770Z,56.90
2023-04-15T18:59:25.864Z,57.10
2023-04-15T19:02:10.955Z,57.00
2023-04-15T19:04:56.470Z,57.00
2023-04-15T19:07:42.667Z,57.50
2023-04-15T19:10:28.181Z,57.20
2023-04-15T19:13:18.859Z,57.20
2023-04-15T19:16:04.882Z,57.20
2023-04-15T19:18:50.267Z,57.70
2023-04-15T19:21:41.179Z,57.80
2023-04-15T19:24:26.707Z,57.90
2023-04-15T19:27:12.187Z,57.30
2023-04-15T19:29:57.801Z,58.20
2023-04-15T19:32:45.318Z,58.90
2023-04-15T19:35:31.131Z,58.90
2023-04-15T19:38:17.042Z,61.00
2023-04-15T19:41:02.592Z,59.50
2023-04-15T19:43:47.849Z,60.00
2023-04-15T19:46:33.582Z,59.50
2023-04-15T19:49:19.574Z,59.10
2023-04-15T19:52:05.364Z,59.80
2023-04-15T19:54:50.971Z,59.50
2023-04-15T19:57:39.263Z,59.10
2023-04-15T20:00:25.169Z,58.60
2023-04-15T20:03:13.378Z,57.60
2023-04-15T20:05:59.149Z,57.30
2023-04-15T20:08:44.585Z,57.80
2023-04-15T20:12:06.475Z,57.40
2023-04-15T20:14:37.824Z,57.20
2023-04-15T20:17:23.493Z,57.40
2023-04-15T20:20:09.407Z,57.10
2023-04-15T20:22:58.314Z,56.80
2023-04-15T20:25:46.795Z,56.80
2023-04-15T20:28:32.356Z,56.20
2023-04-15T20:31:17.661Z,56.00
2023-04-15T20:34:03.246Z,55.70
2023-04-15T20:36:48.938Z,55.90
2023-04-15T20:39:37.225Z,55.70
2023-04-15T20:42:22.457Z,55.40
2023-04-15T20:45:09.303Z,55.00
2023-04-15T20:47:57.230Z,55.00
2023-04-15T20:50:45.517Z,55.10
2023-04-15T20:53:31.209Z,55.20
2023-04-15T20:56:16.371Z,54.80
2023-04-15T20:59:02.300Z,55.00
2023-04-15T21:01:48.170Z,54.80
2023-04-15T21:04:37.939Z,55.10
2023-04-15T21:07:25.801Z,54.90
2023-04-15T21:10:11.327Z,54.60
2023-04-15T21:12:56.465Z,55.30
2023-04-15T21:15:45.930Z,55.10
2023-04-15T21:18:31.678Z,54.90
2023-04-15T21:21:19.433Z,54.70
2023-04-15T21:24:06.855Z,54.60
2023-04-15T21:26:52.617Z,54.90
2023-04-15T21:29:40.308Z,54.90
2023-04-15T21:32:25.990Z,54.90
2023-04-15T21:35:13.649Z,55.30
2023-04-15T21:37:59.509Z,54.60
2023-04-15T21:40:45.308Z,54.80
2023-04-15T21:43:32.806Z,54.80
2023-04-15T21:46:22.867Z,54.60
2023-04-15T21:49:09.254Z,54.30
2023-04-15T21:51:54.750Z,54.40
2023-04-15T21:54:40.234Z,54.50
2023-04-15T21:57:25.624Z,54.30
2023-04-15T22:00:11.582Z,54.80
2023-04-15T22:02:57.117Z,54.40
2023-04-15T22:05:46.093Z,54.30
2023-04-15T22:08:38.660Z,54.30
2023-04-15T22:11:30.984Z,54.50
2023-04-15T22:14:16.700Z,54.30
2023-04-15T22:17:02.955Z,54.20
2023-04-15T22:19:48.755Z,53.90
2023-04-15T22:22:43.807Z,54.00
2023-04-15T22:25:30.840Z,53.80
2023-04-15T22:28:16.557Z,53.40
2023-04-15T22:31:04.520Z,53.60
2023-04-15T22:33:49.601Z,54.00
2023-04-15T22:36:35.497Z,53.90
2023-04-15T22:39:21.313Z,54.30
2023-04-15T22:42:09.020Z,54.20
2023-04-15T22:44:54.308Z,54.30
2023-04-15T22:47:39.709Z,54.00
2023-04-15T22:50:25.111Z,54.50
2023-04-15T22:53:13.207Z,54.30
2023-04-15T22:56:01.599Z,54.60
2023-04-15T22:58:48.055Z,54.90
2023-04-15T23:01:33.414Z,54.60
2023-04-15T23:04:26.625Z,54.40
2023-04-15T23:07:13.534Z,54.40
2023-04-15T23:10:01.311Z,54.20
2023-04-15T23:12:47.146Z,54.30
2023-04-15T23:15:32.812Z,54.10
2023-04-15T23:18:18.159Z,54.30
2023-04-15T23:21:04.132Z,54.60
2023-04-15T23:23:49.606Z,54.40
2023-04-15T23:26:35.195Z,54.30
2023-04-15T23:29:20.793Z,54.60
2023-04-15T23:32:07.398Z,54.70
2023-04-15T23:34:55.376Z,55.20
2023-04-15T23:37:43.099Z,55.30
2023-04-15T23:40:28.508Z,55.40
2023-04-15T23:43:13.732Z,55.50
2023-04-15T23:46:01.846Z,55.50
2023-04-15T23:48:49.036Z,55.60
2023-04-15T23:51:34.753Z,55.80
2023-04-15T23:54:19.950Z,55.70
2023-04-15T23:57:05.672Z,56.00
2023-04-15T23:59:50.979Z,56.30
